createdAt,value
2023-05-29T00:00:44.366Z,100.00
2023-05-29T00:03:16.687Z,100.00
2023-05-29T00:05:45.473Z,100.00
2023-05-29T00:08:16.641Z,100.00
2023-05-29T00:10:46.010Z,100.00
2023-05-29T00:13:14.787Z,100.00
2023-05-29T00:15:43.615Z,100.00
2023-05-29T00:18:12.296Z,100.00
2023-05-29T00:20:44.604Z,100.00
2023-05-29T00:23:13.398Z,100.00
2023-05-29T00:25:47.479Z,100.00
2023-05-29T00:28:16.196Z,100.00
2023-05-29T00:30:44.910Z,100.00
2023-05-29T00:33:16.046Z,100.00
2023-05-29T00:35:46.187Z,100.00
2023-05-29T00:38:17.085Z,100.00
2023-05-29T00:40:45.994Z,100.00
2023-05-29T00:43:14.917Z,100.00
2023-05-29T00:45:43.610Z,100.00
2023-05-29T00:48:15.106Z,100.00
2023-05-29T00:50:47.731Z,100.00
2023-05-29T00:53:16.744Z,100.00
2023-05-29T00:55:45.591Z,100.00
2023-05-29T00:58:14.342Z,100.00
2023-05-29T01:00:44.258Z,100.00
2023-05-29T01:03:18.201Z,100.00
2023-05-29T01:05:48.724Z,100.00
2023-05-29T01:08:17.482Z,100.00
2023-05-29T01:10:46.586Z,100.00
2023-05-29T01:13:20.585Z,100.00
2023-05-29T01:15:56.947Z,100.00
2023-05-29T01:18:36.744Z,100.00
2023-05-29T01:21:13.150Z,100.00
2023-05-29T01:24:00.003Z,100.00
2023-05-29T01:26:49.236Z,100.00
2023-05-29T01:29:21.080Z,100.00
2023-05-29T01:31:52.826Z,100.00
2023-05-29T01:34:23.861Z,100.00
2023-05-29T01:36:52.687Z,100.00
2023-05-29T01:39:25.909Z,100.00
2023-05-29T01:41:57.212Z,100.00
2023-05-29T01:44:27.109Z,100.00
2023-05-29T01:46:56.753Z,100.00
2023-05-29T01:49:30.545Z,100.00
2023-05-29T01:52:00.202Z,100.00
2023-05-29T01:54:31.403Z,100.00
2023-05-29T01:57:03.518Z,100.00
2023-05-29T01:59:32.714Z,100.00
2023-05-29T02:02:07.926Z,100.00
2023-05-29T02:04:37.189Z,100.00
2023-05-29T02:07:07.224Z,100.00
2023-05-29T02:09:39.305Z,100.00
2023-05-29T02:12:10.137Z,100.00
2023-05-29T02:14:42.182Z,100.00
2023-05-29T02:17:12.273Z,100.00
2023-05-29T02:24:34.591Z,100.00
2023-05-29T02:27:04.377Z,100.00
2023-05-29T02:29:34.697Z,100.00
2023-05-29T02:32:03.952Z,100.00
2023-05-29T02:34:36.196Z,100.00
2023-05-29T02:37:05.309Z,100.00
2023-05-29T02:39:34.431Z,100.00
2023-05-29T02:42:03.548Z,100.00
2023-05-29T02:44:32.573Z,100.00
2023-05-29T02:47:03.055Z,100.00
2023-05-29T02:49:32.177Z,100.00
2023-05-29T02:52:01.384Z,100.00
2023-05-29T02:54:30.457Z,100.00
2023-05-29T02:56:59.552Z,100.00
2023-05-29T02:59:28.513Z,100.00
2023-05-29T03:01:57.619Z,100.00
2023-05-29T03:04:28.907Z,100.00
2023-05-29T03:06:58.015Z,100.00
2023-05-29T03:09:27.091Z,100.00
2023-05-29T03:11:56.166Z,100.00
2023-05-29T03:14:25.172Z,100.00
2023-05-29T03:16:54.701Z,100.00
2023-05-29T03:19:23.775Z,100.00
2023-05-29T03:21:54.255Z,100.00
2023-05-29T03:24:25.928Z,100.00
2023-05-29T03:26:59.524Z,100.00
2023-05-29T03:29:28.685Z,99.97
2023-05-29T03:31:58.580Z,99.92
2023-05-29T03:34:31.682Z,99.88
2023-05-29T03:37:04.432Z,100.00
2023-05-29T03:39:34.787Z,100.00
2023-05-29T03:42:04.159Z,100.00
2023-05-29T03:44:33.697Z,99.81
2023-05-29T03:47:05.169Z,100.00
2023-05-29T03:49:39.585Z,100.00
2023-05-29T03:52:10.207Z,100.00
2023-05-29T03:54:39.339Z,100.00
2023-05-29T03:57:10.112Z,99.08
2023-05-29T03:59:43.291Z,100.00
2023-05-29T04:02:15.098Z,100.00
2023-05-29T04:04:45.880Z,100.00
2023-05-29T04:07:18.748Z,100.00
2023-05-29T04:09:47.976Z,100.00
2023-05-29T04:12:17.924Z,100.00
2023-05-29T04:14:46.817Z,100.00
2023-05-29T04:17:15.950Z,100.00
2023-05-29T04:19:45.887Z,100.00
2023-05-29T04:22:17.139Z,100.00
2023-05-29T04:24:46.086Z,100.00
2023-05-29T04:27:15.303Z,99.36
2023-05-29T04:29:44.867Z,99.06
2023-05-29T04:32:13.934Z,98.93
2023-05-29T04:34:45.225Z,99.02
2023-05-29T04:37:18.261Z,98.58
2023-05-29T04:39:47.219Z,97.82
2023-05-29T04:42:23.854Z,98.65
2023-05-29T04:44:53.673Z,98.15
2023-05-29T04:47:23.588Z,97.30
2023-05-29T04:49:52.920Z,97.18
2023-05-29T04:52:25.617Z,97.50
2023-05-29T04:54:54.688Z,94.98
2023-05-29T04:57:24.737Z,95.35
2023-05-29T04:59:54.244Z,96.00
2023-05-29T05:02:23.297Z,94.52
2023-05-29T05:04:52.580Z,94.97
2023-05-29T05:07:21.603Z,95.53
2023-05-29T05:09:52.184Z,94.34
2023-05-29T05:12:25.009Z,93.23
2023-05-29T05:14:54.373Z,93.63
2023-05-29T05:17:23.496Z,94.30
2023-05-29T05:19:53.533Z,94.11
2023-05-29T05:22:22.747Z,93.64
2023-05-29T05:24:55.676Z,93.87
2023-05-29T05:32:20.995Z,93.23
2023-05-29T05:34:56.926Z,93.14
2023-05-29T05:37:26.066Z,92.61
2023-05-29T05:40:01.288Z,92.93
2023-05-29T05:42:31.529Z,92.50
2023-05-29T05:50:03.491Z,93.05
2023-05-29T05:52:33.785Z,93.29
2023-05-29T05:55:05.504Z,93.61
2023-05-29T05:57:34.677Z,92.66
2023-05-29T06:00:05.937Z,93.07
2023-05-29T06:02:46.342Z,92.64
2023-05-29T06:05:23.812Z,93.01
2023-05-29T06:07:52.621Z,93.26
2023-05-29T06:10:22.933Z,92.00
2023-05-29T06:12:51.915Z,91.64
2023-05-29T06:15:26.089Z,92.42
2023-05-29T06:17:56.734Z,91.59
2023-05-29T06:20:27.610Z,91.50
2023-05-29T06:22:56.650Z,91.57
2023-05-29T06:25:34.208Z,90.28
2023-05-29T06:28:03.493Z,90.21
2023-05-29T06:30:32.287Z,89.99
2023-05-29T06:33:01.453Z,89.28
2023-05-29T06:35:33.547Z,89.91
2023-05-29T06:38:02.365Z,89.87
2023-05-29T06:40:35.066Z,90.43
2023-05-29T06:43:04.244Z,89.97
2023-05-29T06:45:41.740Z,90.42
2023-05-29T06:48:11.534Z,88.94
2023-05-29T06:50:43.892Z,89.39
2023-05-29T06:53:38.867Z,89.05
2023-05-29T06:56:10.786Z,89.29
2023-05-29T06:58:39.576Z,88.37
2023-05-29T07:01:10.563Z,84.58
2023-05-29T07:03:45.754Z,84.12
2023-05-29T07:06:16.955Z,83.83
2023-05-29T07:08:46.045Z,81.85
2023-05-29T07:11:16.622Z,80.72
2023-05-29T07:13:45.600Z,79.63
2023-05-29T07:16:24.355Z,78.76
2023-05-29T07:19:02.064Z,74.58
2023-05-29T07:21:35.316Z,75.69
2023-05-29T07:24:07.057Z,74.18
2023-05-29T07:26:39.326Z,73.60
2023-05-29T07:29:08.222Z,74.20
2023-05-29T07:31:37.189Z,74.36
2023-05-29T07:34:06.255Z,71.73
2023-05-29T07:36:35.040Z,71.68
2023-05-29T07:39:08.793Z,71.46
2023-05-29T07:41:39.237Z,72.39
2023-05-29T07:44:10.063Z,70.65
2023-05-29T07:46:39.776Z,70.68
2023-05-29T07:49:34.471Z,69.90
2023-05-29T07:52:06.759Z,71.01
2023-05-29T07:54:36.241Z,71.86
2023-05-29T07:57:10.714Z,67.43
2023-05-29T07:59:43.518Z,67.60
2023-05-29T08:02:13.172Z,67.50
2023-05-29T08:05:14.864Z,65.51
2023-05-29T08:07:44.836Z,65.34
2023-05-29T08:10:14.035Z,66.38
2023-05-29T08:12:44.140Z,63.84
2023-05-29T08:15:14.506Z,64.61
2023-05-29T08:17:43.277Z,62.17
2023-05-29T08:20:14.447Z,60.40
2023-05-29T08:22:45.712Z,63.59
2023-05-29T08:25:14.452Z,64.01
2023-05-29T08:27:44.531Z,64.84
2023-05-29T08:30:14.808Z,63.37
2023-05-29T08:32:47.211Z,63.82
2023-05-29T08:35:15.889Z,64.70
2023-05-29T08:37:44.664Z,62.99
2023-05-29T08:40:15.973Z,63.27
2023-05-29T08:42:49.818Z,63.28
2023-05-29T08:45:23.810Z,61.48
2023-05-29T08:47:55.051Z,60.86
2023-05-29T08:50:24.907Z,60.74
2023-05-29T08:52:53.820Z,62.13
2023-05-29T08:55:22.714Z,63.82
2023-05-29T08:57:53.121Z,62.14
2023-05-29T09:00:23.481Z,59.28
2023-05-29T09:02:54.528Z,60.30
2023-05-29T09:05:23.445Z,59.29
2023-05-29T09:07:52.178Z,59.67
2023-05-29T09:10:22.878Z,59.79
2023-05-29T09:12:53.000Z,60.04
2023-05-29T09:15:22.993Z,59.77
2023-05-29T09:17:53.996Z,59.03
2023-05-29T09:20:25.470Z,59.21
2023-05-29T09:22:58.696Z,57.54
2023-05-29T09:25:27.909Z,56.54
2023-05-29T09:28:03.908Z,56.89
2023-05-29T09:30:38.862Z,57.46
2023-05-29T09:33:12.073Z,57.03
2023-05-29T09:35:41.928Z,57.65
2023-05-29T09:38:12.718Z,58.19
2023-05-29T09:40:42.557Z,57.48
2023-05-29T09:43:13.934Z,57.55
2023-05-29T09:45:43.600Z,58.41
2023-05-29T09:48:16.260Z,56.21
2023-05-29T09:50:46.328Z,56.64
2023-05-29T09:53:20.287Z,55.60
2023-05-29T09:55:49.625Z,54.86
2023-05-29T09:58:20.106Z,52.69
2023-05-29T10:00:49.719Z,54.64
2023-05-29T10:03:19.107Z,54.44
2023-05-29T10:05:51.688Z,52.97
2023-05-29T10:08:22.337Z,54.69
2023-05-29T10:10:56.263Z,56.03
2023-05-29T10:13:30.219Z,55.90
2023-05-29T10:16:01.199Z,53.46
2023-05-29T10:18:37.480Z,54.48
2023-05-29T10:21:08.976Z,53.46
2023-05-29T10:23:39.699Z,53.48
2023-05-29T10:26:14.969Z,53.71
2023-05-29T10:28:48.839Z,54.22
2023-05-29T10:31:25.647Z,52.17
2023-05-29T10:34:04.690Z,51.68
2023-05-29T10:36:38.306Z,52.91
2023-05-29T10:39:08.898Z,53.77
2023-05-29T10:41:40.896Z,54.29
2023-05-29T10:44:42.353Z,54.20
2023-05-29T10:47:13.665Z,54.11
2023-05-29T10:49:51.869Z,54.91
2023-05-29T10:52:21.962Z,53.95
2023-05-29T10:54:55.993Z,55.50
2023-05-29T10:57:25.526Z,54.83
2023-05-29T11:00:14.426Z,54.79
2023-05-29T11:02:43.947Z,54.05
2023-05-29T11:05:26.418Z,54.36
2023-05-29T11:07:58.757Z,51.57
2023-05-29T11:10:57.508Z,53.93
2023-05-29T11:13:28.193Z,55.54
2023-05-29T11:16:15.938Z,52.98
2023-05-29T11:18:47.283Z,53.54
2023-05-29T11:21:33.078Z,53.48
2023-05-29T11:24:07.555Z,52.80
2023-05-29T11:26:39.893Z,50.86
2023-05-29T11:29:12.007Z,52.25
2023-05-29T11:31:42.874Z,51.08
2023-05-29T11:34:16.475Z,50.43
2023-05-29T11:36:46.513Z,52.13
2023-05-29T11:39:17.532Z,52.48
2023-05-29T11:41:53.277Z,53.16
2023-05-29T11:44:26.936Z,54.27
2023-05-29T11:47:04.834Z,55.07
2023-05-29T11:49:37.362Z,52.52
2023-05-29T11:54:48.839Z,51.59
2023-05-29T11:57:22.383Z,51.12
2023-05-29T11:59:53.866Z,51.43
2023-05-29T12:02:26.566Z,52.19
2023-05-29T12:05:02.098Z,51.44
2023-05-29T12:07:30.886Z,50.09
2023-05-29T12:09:59.655Z,49.91
2023-05-29T12:12:30.520Z,50.71
2023-05-29T12:14:59.748Z,50.76
2023-05-29T12:17:31.792Z,50.25
2023-05-29T12:20:00.938Z,50.75
2023-05-29T12:22:36.382Z,51.25
2023-05-29T12:25:09.772Z,50.35
2023-05-29T12:27:43.868Z,50.60
2023-05-29T12:30:24.227Z,50.47
2023-05-29T12:33:03.076Z,51.37
2023-05-29T12:35:32.334Z,51.34
2023-05-29T12:38:02.364Z,52.23
2023-05-29T12:40:35.231Z,52.33
2023-05-29T12:43:06.445Z,51.60
2023-05-29T12:45:36.229Z,52.94
2023-05-29T12:48:07.907Z,53.11
2023-05-29T12:50:38.526Z,52.45
2023-05-29T12:53:09.028Z,52.75
2023-05-29T12:55:39.739Z,52.53
2023-05-29T12:58:09.828Z,52.64
2023-05-29T13:00:39.985Z,53.14
2023-05-29T13:03:11.764Z,51.48
2023-05-29T13:05:40.866Z,52.63
2023-05-29T13:08:09.674Z,52.85
2023-05-29T13:10:38.388Z,51.32
2023-05-29T13:13:07.136Z,52.59
2023-05-29T13:15:36.089Z,53.93
2023-05-29T13:18:05.083Z,52.80
2023-05-29T13:20:35.291Z,51.63
2023-05-29T13:23:04.007Z,52.32
2023-05-29T13:25:32.755Z,51.53
2023-05-29T13:28:01.467Z,51.62
2023-05-29T13:30:30.274Z,52.78
2023-05-29T13:32:59.057Z,51.67
2023-05-29T13:35:27.912Z,51.98
2023-05-29T13:37:57.931Z,53.50
2023-05-29T13:40:26.849Z,53.93
2023-05-29T13:42:55.650Z,53.61
2023-05-29T13:45:24.306Z,53.53
2023-05-29T13:47:56.808Z,51.84
2023-05-29T13:50:26.824Z,51.08
2023-05-29T13:52:56.983Z,51.12
2023-05-29T13:55:25.795Z,51.59
2023-05-29T13:58:00.124Z,51.49
2023-05-29T14:00:29.038Z,51.86
2023-05-29T14:02:57.935Z,52.84
2023-05-29T14:05:27.199Z,51.50
2023-05-29T14:07:57.282Z,52.16
2023-05-29T14:10:25.991Z,51.92
2023-05-29T14:12:56.829Z,51.78
2023-05-29T14:15:25.554Z,50.51
2023-05-29T14:17:54.265Z,50.72
2023-05-29T14:20:23.234Z,51.74
2023-05-29T14:22:54.640Z,50.45
2023-05-29T14:25:24.775Z,50.36
2023-05-29T14:27:55.951Z,50.54
2023-05-29T14:30:24.947Z,51.78
2023-05-29T14:32:54.033Z,52.68
2023-05-29T14:35:22.800Z,51.50
2023-05-29T14:37:51.548Z,51.73
2023-05-29T14:40:20.502Z,52.93
2023-05-29T14:42:50.665Z,52.93
2023-05-29T14:45:21.630Z,52.67
2023-05-29T14:47:50.980Z,52.10
2023-05-29T14:50:22.465Z,53.00
2023-05-29T14:52:51.260Z,53.74
2023-05-29T14:55:19.944Z,54.12
2023-05-29T15:02:42.317Z,54.80
2023-05-29T15:05:11.402Z,54.61
2023-05-29T15:07:40.102Z,55.66
2023-05-29T15:10:09.185Z,54.42
2023-05-29T15:12:37.980Z,53.77
2023-05-29T15:15:08.169Z,54.54
2023-05-29T15:17:37.761Z,54.07
2023-05-29T15:20:10.949Z,53.25
2023-05-29T15:22:39.721Z,53.12
2023-05-29T15:25:09.083Z,53.46
2023-05-29T15:27:37.886Z,54.36
2023-05-29T15:30:14.437Z,53.67
2023-05-29T15:32:44.573Z,52.95
2023-05-29T15:35:17.011Z,53.46
2023-05-29T15:37:48.121Z,53.77
2023-05-29T15:40:19.221Z,52.81
2023-05-29T15:42:47.904Z,52.77
2023-05-29T15:45:16.552Z,53.10
2023-05-29T15:47:45.375Z,53.42
2023-05-29T15:50:15.445Z,53.90
2023-05-29T15:52:54.361Z,53.00
2023-05-29T15:55:25.155Z,53.51
2023-05-29T15:57:54.125Z,53.19
2023-05-29T16:00:23.054Z,51.82
2023-05-29T16:02:52.207Z,54.18
2023-05-29T16:05:22.412Z,54.82
2023-05-29T16:07:51.900Z,53.63
2023-05-29T16:10:20.758Z,53.83
2023-05-29T16:12:52.880Z,54.41
2023-05-29T16:15:21.904Z,54.09
2023-05-29T16:17:50.928Z,54.91
2023-05-29T16:20:26.015Z,55.82
2023-05-29T16:22:54.825Z,55.21
2023-05-29T16:25:24.140Z,55.49
2023-05-29T16:32:45.849Z,55.07
2023-05-29T16:35:15.119Z,54.19
2023-05-29T16:37:45.645Z,53.60
2023-05-29T16:40:14.835Z,54.15
2023-05-29T16:42:46.012Z,54.94
2023-05-29T16:45:14.921Z,55.09
2023-05-29T16:47:46.319Z,55.30
2023-05-29T16:50:15.467Z,55.36
2023-05-29T16:52:47.414Z,55.14
2023-05-29T16:55:16.357Z,55.11
2023-05-29T16:57:45.199Z,55.25
2023-05-29T17:00:14.828Z,55.35
2023-05-29T17:02:43.721Z,55.16
2023-05-29T17:05:13.054Z,55.45
2023-05-29T17:07:42.206Z,56.44
2023-05-29T17:10:13.793Z,56.72
2023-05-29T17:12:44.366Z,55.99
2023-05-29T17:15:13.176Z,56.80
2023-05-29T17:17:44.214Z,56.83
2023-05-29T17:20:15.667Z,56.12
2023-05-29T17:22:44.551Z,55.65
2023-05-29T17:25:14.629Z,56.38
2023-05-29T17:27:43.348Z,58.84
2023-05-29T17:30:13.204Z,60.64
2023-05-29T17:32:44.383Z,61.91
2023-05-29T17:35:14.396Z,62.79
2023-05-29T17:37:43.158Z,63.76
2023-05-29T17:40:14.604Z,64.00
2023-05-29T17:42:47.093Z,62.96
2023-05-29T17:45:16.107Z,63.94
2023-05-29T17:47:44.824Z,65.03
2023-05-29T17:50:14.031Z,64.86
2023-05-29T17:52:42.779Z,64.67
2023-05-29T17:55:11.908Z,65.97
2023-05-29T17:57:42.025Z,67.09
2023-05-29T18:00:14.741Z,68.39
2023-05-29T18:02:46.516Z,66.60
2023-05-29T18:05:15.426Z,65.29
2023-05-29T18:07:44.204Z,67.31
2023-05-29T18:10:12.975Z,67.93
2023-05-29T18:12:46.092Z,67.25
2023-05-29T18:15:15.605Z,67.80
2023-05-29T18:19:18.342Z,68.63
2023-05-29T18:22:50.810Z,68.43
2023-05-29T18:25:19.722Z,69.32
2023-05-29T18:27:51.154Z,68.93
2023-05-29T18:30:20.039Z,70.02
2023-05-29T18:32:48.770Z,70.08
2023-05-29T18:35:18.071Z,70.98
2023-05-29T18:37:46.911Z,71.80
2023-05-29T18:40:16.122Z,70.61
2023-05-29T18:42:44.983Z,71.45
2023-05-29T18:45:17.623Z,71.43
2023-05-29T18:47:49.016Z,73.01
2023-05-29T18:50:17.883Z,72.29
2023-05-29T18:57:41.617Z,74.47
2023-05-29T19:00:11.663Z,74.52
2023-05-29T19:02:42.234Z,74.72
2023-05-29T19:05:11.649Z,75.84
2023-05-29T19:29:20.944Z,79.84
2023-05-29T19:31:50.070Z,79.56
2023-05-29T19:34:19.115Z,81.08
2023-05-29T19:36:47.816Z,81.58
2023-05-29T19:39:19.540Z,80.54
2023-05-29T19:41:48.235Z,80.06
2023-05-29T19:44:16.949Z,79.40
2023-05-29T19:46:50.928Z,79.20
2023-05-29T19:49:20.756Z,78.94
2023-05-29T19:51:52.804Z,78.99
2023-05-29T19:54:21.561Z,80.69
2023-05-29T19:56:50.401Z,81.08
2023-05-29T19:59:21.773Z,81.01
2023-05-29T20:01:51.908Z,82.41
2023-05-29T20:04:20.780Z,81.34
2023-05-29T20:07:00.046Z,82.64
2023-05-29T20:09:46.181Z,83.39
2023-05-29T20:12:17.554Z,82.88
2023-05-29T20:14:49.406Z,82.98
2023-05-29T20:17:23.805Z,84.62
2023-05-29T20:19:56.398Z,84.49
2023-05-29T20:22:26.176Z,85.29
2023-05-29T20:24:59.036Z,85.09
2023-05-29T20:27:32.926Z,85.82
2023-05-29T20:30:27.586Z,86.32
2023-05-29T20:33:00.988Z,86.11
2023-05-29T20:35:36.959Z,86.28
2023-05-29T20:38:18.002Z,88.13
2023-05-29T20:41:08.078Z,88.39
2023-05-29T20:43:38.745Z,87.72
2023-05-29T20:55:42.498Z,89.75
2023-05-29T20:58:16.980Z,91.75
2023-05-29T21:00:55.674Z,91.18
2023-05-29T21:03:25.858Z,91.54
2023-05-29T21:05:57.664Z,90.90
2023-05-29T21:08:30.724Z,92.20
2023-05-29T21:11:01.342Z,93.30
2023-05-29T21:13:33.012Z,93.02
2023-05-29T21:16:04.597Z,93.13
2023-05-29T21:18:35.968Z,93.51
2023-05-29T21:21:04.954Z,93.51
2023-05-29T21:23:36.238Z,93.86
2023-05-29T21:26:06.435Z,93.65
2023-05-29T21:28:38.618Z,93.69
2023-05-29T21:31:13.542Z,94.08
2023-05-29T21:33:48.918Z,93.81
2023-05-29T21:36:26.945Z,94.50
2023-05-29T21:38:58.493Z,94.58
2023-05-29T21:41:53.377Z,93.98
2023-05-29T21:44:34.475Z,94.36
2023-05-29T21:47:10.275Z,94.26
2023-05-29T21:49:51.081Z,95.75
2023-05-29T21:52:20.135Z,96.11
2023-05-29T21:55:00.537Z,96.51
2023-05-29T21:57:33.529Z,95.92
2023-05-29T22:00:04.768Z,96.28
2023-05-29T22:02:34.282Z,96.56
2023-05-29T22:05:14.220Z,96.69
2023-05-29T22:07:53.241Z,98.42
2023-05-29T22:10:29.061Z,98.23
2023-05-29T22:13:04.777Z,99.52
2023-05-29T22:15:45.240Z,98.54
2023-05-29T22:18:15.887Z,100.00
2023-05-29T22:20:49.750Z,99.96
2023-05-29T22:23:20.205Z,99.38
2023-05-29T22:26:04.130Z,100.00
2023-05-29T22:28:42.648Z,100.00
2023-05-29T22:31:11.591Z,100.00
2023-05-29T22:33:43.182Z,100.00
2023-05-29T22:36:17.817Z,100.00
2023-05-29T22:38:48.109Z,100.00
2023-05-29T22:41:16.942Z,100.00
2023-05-29T22:43:52.558Z,100.00
2023-05-29T22:46:27.350Z,100.00
2023-05-29T22:49:08.454Z,100.00
2023-05-29T22:51:38.430Z,100.00
2023-05-29T22:54:21.553Z,100.00
2023-05-29T22:56:53.792Z,100.00
2023-05-29T22:59:29.924Z,100.00
2023-05-29T23:02:02.540Z,100.00
2023-05-29T23:04:32.826Z,100.00
2023-05-29T23:07:04.452Z,100.00
2023-05-29T23:09:35.213Z,100.00
2023-05-29T23:12:06.148Z,100.00
2023-05-29T23:14:45.281Z,100.00
2023-05-29T23:17:20.203Z,100.00
2023-05-29T23:22:38.847Z,100.00
2023-05-29T23:25:11.465Z,100.00
2023-05-29T23:27:43.466Z,100.00
2023-05-29T23:30:14.033Z,100.00
2023-05-29T23:32:59.423Z,100.00
2023-05-29T23:35:30.163Z,100.00
2023-05-29T23:38:06.868Z,100.00
2023-05-29T23:40:40.969Z,100.00
2023-05-29T23:43:17.255Z,100.00
2023-05-29T23:46:07.238Z,100.00
2023-05-29T23:48:41.995Z,100.00
2023-05-29T23:51:16.231Z,100.00
2023-05-29T23:53:44.975Z,100.00
2023-05-29T23:56:16.993Z,100.00
2023-05-29T23:58:45.888Z,100.00
